Time;durP1;ratioP1;P1;durP2;ratioP2;P2;SDS_P1;SDS_P2;PMS_P1;PMS_P2;Temp;Humidity;BMP_temperature;BMP_pressure;BME280_temperature;BME280_humidity;BME280_pressure;Samples;Min_cycle;Max_cycle;Signal;HPM_P1;HPM_P2
2022/10/18 00:01:38;;;;;;;21.33;5.30;;;;;;;;;;5023490;28;20041;-78
2022/10/18 00:04:05;;;;;;;19.95;5.40;;;;;;;;;;5023215;28;20084;-78
2022/10/18 00:06:31;;;;;;;19.05;5.18;;;;;;;;;;5025382;28;20120;-79
2022/10/18 00:08:57;;;;;;;25.10;5.47;;;;;;;;;;5022902;28;20052;-79
2022/10/18 00:11:23;;;;;;;21.90;5.10;;;;;;;;;;5024179;28;20107;-79
2022/10/18 00:13:49;;;;;;;23.60;5.50;;;;;;;;;;5025012;28;20041;-79
2022/10/18 00:16:17;;;;;;;23.63;5.50;;;;;;;;;;5025189;28;20041;-79
2022/10/18 00:18:43;;;;;;;20.02;4.82;;;;;;;;;;5024704;28;20053;-79
2022/10/18 00:21:16;;;;;;;20.88;4.97;;;;;;;;;;5021279;28;20034;-79
2022/10/18 00:23:42;;;;;;;22.50;5.68;;;;;;;;;;5022273;28;20098;-79
2022/10/18 00:26:13;;;;;;;22.60;5.47;;;;;;;;;;5020696;28;20048;-79
2022/10/18 00:28:39;;;;;;;18.48;5.18;;;;;;;;;;5022163;28;20143;-79
2022/10/18 00:31:22;;;;;;;18.17;5.13;;;;;;;;;;5023576;28;20045;-79
2022/10/18 00:33:52;;;;;;;23.85;5.90;;;;;;;;;;5022804;28;20083;-78
2022/10/18 00:36:19;;;;;;;22.92;5.25;;;;;;;;;;5021582;28;20038;-79
2022/10/18 00:38:45;;;;;;;15.10;5.03;;;;;;;;;;5023882;28;20038;-79
2022/10/18 00:41:12;;;;;;;20.88;4.90;;;;;;;;;;5023245;28;20045;-79
2022/10/18 00:43:50;;;;;;;24.38;5.90;;;;;;;;;;5024901;28;20049;-79
2022/10/18 00:46:16;;;;;;;23.77;4.90;;;;;;;;;;5020632;28;20037;-79
2022/10/18 00:48:42;;;;;;;21.05;5.50;;;;;;;;;;5023751;28;20060;-79
2022/10/18 00:51:09;;;;;;;18.13;5.22;;;;;;;;;;5021715;28;20508;-79
2022/10/18 00:53:36;;;;;;;26.92;4.75;;;;;;;;;;5023482;28;20057;-79
2022/10/18 00:56:02;;;;;;;19.98;5.40;;;;;;;;;;5023532;28;20123;-79
2022/10/18 00:58:28;;;;;;;18.52;4.60;;;;;;;;;;5023136;28;20053;-79
2022/10/18 01:00:54;;;;;;;21.35;5.05;;;;;;;;;;5019712;28;20053;-79
2022/10/18 01:03:20;;;;;;;20.50;4.97;;;;;;;;;;5023645;28;20063;-79
2022/10/18 01:05:47;;;;;;;16.15;5.03;;;;;;;;;;5024341;28;20029;-79
2022/10/18 01:08:19;;;;;;;18.98;4.80;;;;;;;;;;5021437;28;20076;-79
2022/10/18 01:10:58;;;;;;;19.38;4.60;;;;;;;;;;5022322;28;20560;-79
2022/10/18 01:13:43;;;;;;;19.60;4.78;;;;;;;;;;5020380;28;20049;-79
2022/10/18 01:16:13;;;;;;;21.02;4.68;;;;;;;;;;5020556;28;20508;-79
2022/10/18 01:18:43;;;;;;;17.63;4.60;;;;;;;;;;5021400;28;20492;-79
2022/10/18 01:21:13;;;;;;;21.77;4.85;;;;;;;;;;5022033;28;20049;-79
2022/10/18 01:23:58;;;;;;;20.25;4.68;;;;;;;;;;5023209;28;20051;-79
2022/10/18 01:26:24;;;;;;;17.10;4.57;;;;;;;;;;5022670;28;20504;-79
2022/10/18 01:28:53;;;;;;;22.88;5.40;;;;;;;;;;5020671;28;20037;-79
2022/10/18 01:31:19;;;;;;;24.23;5.40;;;;;;;;;;5026620;28;20037;-79
2022/10/18 01:33:49;;;;;;;22.75;5.20;;;;;;;;;;5021603;28;20493;-79
2022/10/18 01:36:20;;;;;;;18.33;4.82;;;;;;;;;;5022488;28;20045;-79
2022/10/18 01:38:49;;;;;;;18.33;4.82;;;;;;;;;;5019813;28;20038;-79
2022/10/18 01:41:16;;;;;;;21.52;5.07;;;;;;;;;;5021140;28;20069;-79
2022/10/18 01:43:43;;;;;;;22.65;5.45;;;;;;;;;;5022196;28;20037;-79
2022/10/18 01:46:09;;;;;;;23.75;5.30;;;;;;;;;;5026469;28;20049;-78
2022/10/18 01:48:39;;;;;;;21.08;4.70;;;;;;;;;;5020759;28;20042;-79
2022/10/18 01:51:08;;;;;;;17.73;4.83;;;;;;;;;;5022213;28;20132;-79
2022/10/18 01:53:35;;;;;;;19.60;4.72;;;;;;;;;;5022251;28;20316;-79
2022/10/18 01:56:01;;;;;;;21.60;5.00;;;;;;;;;;5027747;28;20116;-78
2022/10/18 01:58:27;;;;;;;21.77;5.13;;;;;;;;;;5022912;28;20125;-79
2022/10/18 02:00:57;;;;;;;17.42;4.88;;;;;;;;;;5026117;28;20092;-79
2022/10/18 02:03:26;;;;;;;20.83;4.90;;;;;;;;;;5022285;28;20053;-79
2022/10/18 02:05:55;;;;;;;18.63;4.15;;;;;;;;;;5025039;28;20182;-78
2022/10/18 02:08:34;;;;;;;18.55;4.20;;;;;;;;;;5023430;28;22007;-79
2022/10/18 02:11:03;;;;;;;20.55;4.30;;;;;;;;;;5019605;28;20111;-78
2022/10/18 02:13:52;;;;;;;19.73;4.47;;;;;;;;;;5024824;28;20104;-78
2022/10/18 02:16:25;;;;;;;11.70;3.97;;;;;;;;;;5010840;28;20525;-79
2022/10/18 02:18:51;;;;;;;;;;;;;;;;;;5017002;28;20080;-79
2022/10/18 02:21:18;;;;;;;15.00;4.20;;;;;;;;;;5021488;28;19925;-79
2022/10/18 02:23:46;;;;;;;17.48;4.50;;;;;;;;;;5017296;28;20045;-79
2022/10/18 02:26:12;;;;;;;17.85;4.55;;;;;;;;;;5023698;28;20485;-79
2022/10/18 02:28:41;;;;;;;16.20;4.07;;;;;;;;;;5021943;28;20132;-79
2022/10/18 02:31:15;;;;;;;18.75;4.50;;;;;;;;;;5019912;28;20053;-79
2022/10/18 02:33:44;;;;;;;19.23;4.20;;;;;;;;;;5024241;28;20048;-79
2022/10/18 02:36:12;;;;;;;18.60;4.05;;;;;;;;;;5020968;28;20772;-78
2022/10/18 02:38:42;;;;;;;16.85;3.85;;;;;;;;;;5017766;28;20449;-79
2022/10/18 02:41:08;;;;;;;19.83;4.15;;;;;;;;;;5022209;28;20030;-79
2022/10/18 02:43:34;;;;;;;15.55;4.18;;;;;;;;;;5016968;28;20408;-79
2022/10/18 02:46:00;;;;;;;18.55;4.13;;;;;;;;;;5024180;28;20049;-79
2022/10/18 02:48:26;;;;;;;13.65;3.80;;;;;;;;;;5021884;28;20045;-79
2022/10/18 02:50:52;;;;;;;13.52;3.63;;;;;;;;;;5024187;28;20064;-78
2022/10/18 02:53:21;;;;;;;15.63;3.78;;;;;;;;;;5027076;28;20064;-79
2022/10/18 02:55:47;;;;;;;18.05;4.18;;;;;;;;;;5022069;28;20552;-78
2022/10/18 02:58:13;;;;;;;12.65;3.72;;;;;;;;;;5025545;28;20152;-79
2022/10/18 03:00:39;;;;;;;21.08;4.03;;;;;;;;;;5023342;28;20045;-79
2022/10/18 03:03:05;;;;;;;13.02;3.65;;;;;;;;;;5023713;28;20049;-79
2022/10/18 03:05:31;;;;;;;17.85;4.15;;;;;;;;;;5026670;28;20065;-79
2022/10/18 03:07:57;;;;;;;13.77;3.35;;;;;;;;;;5025872;28;20509;-79
2022/10/18 03:10:23;;;;;;;12.63;3.40;;;;;;;;;;5024512;28;20137;-79
2022/10/18 03:12:49;;;;;;;15.95;4.00;;;;;;;;;;5023652;28;20448;-79
2022/10/18 03:15:15;;;;;;;15.40;3.63;;;;;;;;;;5023180;28;20041;-79
2022/10/18 03:17:41;;;;;;;15.77;3.58;;;;;;;;;;5024374;28;20041;-79
2022/10/18 03:20:07;;;;;;;12.18;3.90;;;;;;;;;;5025804;28;20396;-79
2022/10/18 03:22:33;;;;;;;16.83;3.97;;;;;;;;;;5023112;28;20041;-78
2022/10/18 03:24:59;;;;;;;13.43;3.83;;;;;;;;;;5021084;28;20072;-79
2022/10/18 03:27:25;;;;;;;14.23;3.70;;;;;;;;;;5028376;28;20501;-78
2022/10/18 03:29:51;;;;;;;17.13;3.58;;;;;;;;;;5022536;28;20046;-78
2022/10/18 03:32:18;;;;;;;15.63;3.42;;;;;;;;;;5024787;28;20167;-79
2022/10/18 03:34:44;;;;;;;13.68;3.25;;;;;;;;;;5023509;28;20037;-79
2022/10/18 03:37:13;;;;;;;13.82;3.20;;;;;;;;;;5022591;28;20156;-79
2022/10/18 03:39:39;;;;;;;12.75;3.35;;;;;;;;;;5022898;28;20042;-79
2022/10/18 03:42:05;;;;;;;13.00;3.47;;;;;;;;;;5022914;28;20049;-79
2022/10/18 03:44:31;;;;;;;12.10;3.53;;;;;;;;;;5024656;28;20411;-79
2022/10/18 03:46:57;;;;;;;13.98;3.30;;;;;;;;;;5023596;28;20053;-79
2022/10/18 03:49:23;;;;;;;17.00;3.70;;;;;;;;;;5023171;28;20556;-78
2022/10/18 03:51:49;;;;;;;16.45;3.35;;;;;;;;;;5023924;28;20497;-78
2022/10/18 03:54:15;;;;;;;11.80;2.80;;;;;;;;;;5020136;28;20061;-78
2022/10/18 03:56:41;;;;;;;11.38;2.97;;;;;;;;;;5021140;28;20393;-79
2022/10/18 03:59:07;;;;;;;11.15;3.30;;;;;;;;;;5025272;28;20064;-79
2022/10/18 04:01:33;;;;;;;15.60;3.72;;;;;;;;;;5021212;28;20044;-79
2022/10/18 04:03:59;;;;;;;14.45;3.22;;;;;;;;;;5021776;28;20037;-79
2022/10/18 04:06:25;;;;;;;11.32;3.33;;;;;;;;;;5023225;28;20049;-79
2022/10/18 04:08:51;;;;;;;11.25;3.30;;;;;;;;;;5023901;28;20132;-79
2022/10/18 04:11:17;;;;;;;10.07;2.90;;;;;;;;;;5023436;28;20591;-79
2022/10/18 04:13:43;;;;;;;7.75;2.67;;;;;;;;;;5027059;28;20048;-79
2022/10/18 04:16:09;;;;;;;10.02;3.03;;;;;;;;;;5019034;28;20041;-79
2022/10/18 04:18:35;;;;;;;8.98;2.80;;;;;;;;;;5019304;28;20045;-78
2022/10/18 04:21:01;;;;;;;8.02;3.05;;;;;;;;;;5020449;28;20099;-78
2022/10/18 04:23:28;;;;;;;6.03;2.85;;;;;;;;;;5022342;28;20064;-78
2022/10/18 04:25:54;;;;;;;11.13;3.00;;;;;;;;;;5022387;28;20046;-78
2022/10/18 04:28:20;;;;;;;13.23;3.28;;;;;;;;;;5021917;28;20409;-78
2022/10/18 04:30:50;;;;;;;9.43;2.95;;;;;;;;;;5025078;28;20041;-78
2022/10/18 04:33:16;;;;;;;7.95;2.50;;;;;;;;;;5019611;28;20045;-78
2022/10/18 04:35:42;;;;;;;8.98;2.88;;;;;;;;;;5023410;28;20052;-78
2022/10/18 04:38:08;;;;;;;13.35;3.80;;;;;;;;;;5018765;28;20045;-78
2022/10/18 04:40:34;;;;;;;11.13;2.95;;;;;;;;;;5024503;28;20037;-79
2022/10/18 04:43:00;;;;;;;7.10;2.70;;;;;;;;;;5022980;28;20041;-79
2022/10/18 04:45:26;;;;;;;7.93;2.90;;;;;;;;;;5023765;28;20072;-79
2022/10/18 04:47:55;;;;;;;11.73;3.42;;;;;;;;;;5020671;28;20067;-79
2022/10/18 04:50:21;;;;;;;11.95;3.20;;;;;;;;;;5031210;28;20481;-79
2022/10/18 04:52:47;;;;;;;12.93;3.00;;;;;;;;;;5022545;28;20072;-79
2022/10/18 04:55:13;;;;;;;8.63;3.00;;;;;;;;;;5029732;28;20128;-79
2022/10/18 04:57:39;;;;;;;11.00;3.03;;;;;;;;;;5023799;28;20049;-78
2022/10/18 05:00:05;;;;;;;9.55;2.80;;;;;;;;;;5026245;28;20049;-78
2022/10/18 05:02:31;;;;;;;11.02;3.25;;;;;;;;;;5027152;28;20045;-78
2022/10/18 05:04:57;;;;;;;10.10;3.30;;;;;;;;;;5031122;28;20107;-78
2022/10/18 05:07:23;;;;;;;8.80;3.30;;;;;;;;;;5023235;28;20543;-78
2022/10/18 05:09:49;;;;;;;7.20;3.10;;;;;;;;;;5022163;28;20045;-78
2022/10/18 05:12:15;;;;;;;10.20;3.40;;;;;;;;;;5028021;28;20367;-78
2022/10/18 05:14:41;;;;;;;6.72;3.00;;;;;;;;;;5029580;28;20083;-78
2022/10/18 05:17:09;;;;;;;12.40;3.60;;;;;;;;;;5028068;28;20195;-78
2022/10/18 05:19:35;;;;;;;7.85;2.90;;;;;;;;;;5025459;28;20071;-78
2022/10/18 05:22:01;;;;;;;26.55;14.20;;;;;;;;;;5027904;28;20072;-78
2022/10/18 05:24:27;;;;;;;19.60;10.07;;;;;;;;;;5027555;28;20451;-78
2022/10/18 05:26:53;;;;;;;10.77;5.07;;;;;;;;;;5023048;28;20037;-78
2022/10/18 05:29:19;;;;;;;11.95;3.92;;;;;;;;;;5022282;28;20048;-78
2022/10/18 05:31:45;;;;;;;8.77;3.05;;;;;;;;;;5023579;28;20490;-78
2022/10/18 05:34:11;;;;;;;7.43;3.40;;;;;;;;;;5023475;28;20046;-78
2022/10/18 05:36:37;;;;;;;10.18;3.35;;;;;;;;;;5028307;28;20045;-78
2022/10/18 05:39:04;;;;;;;8.63;2.85;;;;;;;;;;5023987;28;20041;-78
2022/10/18 05:41:30;;;;;;;11.90;3.10;;;;;;;;;;5025702;28;20064;-78
2022/10/18 05:43:56;;;;;;;6.35;2.60;;;;;;;;;;5032338;28;20106;-78
2022/10/18 05:46:22;;;;;;;5.38;2.75;;;;;;;;;;5027166;28;20488;-78
2022/10/18 05:48:50;;;;;;;8.00;3.00;;;;;;;;;;5018254;28;20049;-78
2022/10/18 05:51:16;;;;;;;8.35;3.35;;;;;;;;;;5023228;28;20038;-78
2022/10/18 05:53:42;;;;;;;13.13;3.30;;;;;;;;;;5022417;28;20484;-78
2022/10/18 05:56:10;;;;;;;12.82;3.25;;;;;;;;;;5016764;28;20107;-78
2022/10/18 05:58:36;;;;;;;13.07;3.33;;;;;;;;;;5016675;28;20053;-78
2022/10/18 06:01:03;;;;;;;13.90;3.50;;;;;;;;;;5020382;28;20033;-78
2022/10/18 06:03:29;;;;;;;9.38;3.10;;;;;;;;;;5024686;28;20493;-78
2022/10/18 06:06:06;;;;;;;10.38;3.33;;;;;;;;;;5019934;28;20045;-78
2022/10/18 06:08:32;;;;;;;20.95;3.22;;;;;;;;;;5020655;28;20053;-78
2022/10/18 06:10:58;;;;;;;11.90;2.90;;;;;;;;;;5019417;28;20065;-78
2022/10/18 06:13:24;;;;;;;11.35;2.63;;;;;;;;;;5022192;28;20063;-78
2022/10/18 06:15:50;;;;;;;15.18;3.60;;;;;;;;;;5018032;28;20042;-78
2022/10/18 06:18:16;;;;;;;9.32;3.03;;;;;;;;;;5022089;28;20052;-78
2022/10/18 06:20:45;;;;;;;10.65;3.22;;;;;;;;;;5023720;28;20041;-78
2022/10/18 06:23:14;;;;;;;16.50;3.28;;;;;;;;;;5022576;28;20114;-78
2022/10/18 06:25:40;;;;;;;12.60;2.97;;;;;;;;;;5022100;28;20128;-78
2022/10/18 06:28:06;;;;;;;13.63;3.15;;;;;;;;;;5025594;28;20049;-78
2022/10/18 06:30:33;;;;;;;11.25;3.38;;;;;;;;;;5023890;28;20049;-78
2022/10/18 06:33:00;;;;;;;15.35;2.88;;;;;;;;;;5027280;28;20045;-78
2022/10/18 06:35:26;;;;;;;11.15;3.63;;;;;;;;;;5024171;28;20048;-78
2022/10/18 06:37:53;;;;;;;15.93;3.17;;;;;;;;;;5029357;28;20049;-79
2022/10/18 06:40:19;;;;;;;14.52;2.70;;;;;;;;;;5028985;28;20041;-79
2022/10/18 06:42:46;;;;;;;12.18;3.15;;;;;;;;;;5030899;28;20488;-79
2022/10/18 06:45:13;;;;;;;11.02;2.75;;;;;;;;;;5019382;28;20045;-79
2022/10/18 06:47:39;;;;;;;11.25;3.35;;;;;;;;;;5031470;28;20127;-78
2022/10/18 06:50:05;;;;;;;11.70;2.90;;;;;;;;;;5032616;28;20053;-79
2022/10/18 06:52:31;;;;;;;10.07;2.83;;;;;;;;;;5029708;28;20053;-78
2022/10/18 06:54:57;;;;;;;15.85;2.75;;;;;;;;;;5032214;28;20222;-78
2022/10/18 06:57:23;;;;;;;14.35;2.95;;;;;;;;;;5028050;28;20165;-78
2022/10/18 06:59:50;;;;;;;11.57;3.08;;;;;;;;;;5030761;28;20064;-79
2022/10/18 07:02:16;;;;;;;13.88;3.13;;;;;;;;;;5026689;28;20057;-78
2022/10/18 07:04:42;;;;;;;14.48;3.03;;;;;;;;;;5032343;28;20501;-79
2022/10/18 07:07:08;;;;;;;11.88;3.35;;;;;;;;;;5027789;28;20041;-78
2022/10/18 07:09:35;;;;;;;10.07;3.08;;;;;;;;;;5025917;28;20120;-77
2022/10/18 07:12:01;;;;;;;14.30;3.45;;;;;;;;;;5031509;28;20092;-78
2022/10/18 07:14:27;;;;;;;12.20;3.17;;;;;;;;;;5028119;28;20072;-78
2022/10/18 07:16:53;;;;;;;9.38;2.92;;;;;;;;;;5024105;28;20041;-77
2022/10/18 07:19:19;;;;;;;11.13;3.17;;;;;;;;;;5030027;28;20046;-77
2022/10/18 07:21:45;;;;;;;14.98;3.50;;;;;;;;;;5029659;28;20508;-77
2022/10/18 07:24:11;;;;;;;10.85;3.20;;;;;;;;;;5026543;28;20046;-77
2022/10/18 07:26:37;;;;;;;15.82;3.45;;;;;;;;;;5030276;28;20041;-77
2022/10/18 07:29:07;;;;;;;9.85;3.15;;;;;;;;;;5032469;28;20045;-77
2022/10/18 07:31:34;;;;;;;15.35;3.13;;;;;;;;;;5028289;28;20552;-77
2022/10/18 07:34:00;;;;;;;15.15;3.20;;;;;;;;;;5026842;28;20099;-78
2022/10/18 07:36:26;;;;;;;11.95;2.65;;;;;;;;;;5026236;28;20584;-78
2022/10/18 07:38:52;;;;;;;14.18;3.10;;;;;;;;;;5030425;28;20053;-78
2022/10/18 07:41:19;;;;;;;12.25;3.15;;;;;;;;;;5027617;28;20095;-80
2022/10/18 07:43:46;;;;;;;12.82;3.10;;;;;;;;;;5025882;28;20050;-79
2022/10/18 07:46:13;;;;;;;16.92;3.53;;;;;;;;;;5028692;28;20140;-80
2022/10/18 07:48:39;;;;;;;10.07;3.08;;;;;;;;;;5028189;28;20814;-78
2022/10/18 07:51:05;;;;;;;15.50;3.10;;;;;;;;;;5024869;28;20057;-79
2022/10/18 07:53:31;;;;;;;18.58;3.92;;;;;;;;;;5037370;28;20453;-79
2022/10/18 07:56:01;;;;;;;9.05;3.35;;;;;;;;;;5026555;28;20065;-79
2022/10/18 07:58:27;;;;;;;12.25;3.03;;;;;;;;;;5016967;28;20077;-77
2022/10/18 08:00:54;;;;;;;14.85;3.03;;;;;;;;;;5032516;28;20049;-77
2022/10/18 08:03:20;;;;;;;9.43;2.75;;;;;;;;;;5029526;28;20052;-77
2022/10/18 08:05:53;;;;;;;16.40;3.08;;;;;;;;;;5032532;28;20129;-78
2022/10/18 08:08:19;;;;;;;15.15;3.20;;;;;;;;;;5018409;28;20054;-79
2022/10/18 08:10:46;;;;;;;10.55;3.08;;;;;;;;;;5027969;28;20056;-78
2022/10/18 08:13:12;;;;;;;12.05;3.08;;;;;;;;;;5012457;28;20049;-79
2022/10/18 08:15:38;;;;;;;8.88;2.95;;;;;;;;;;5026617;28;20042;-78
2022/10/18 08:18:04;;;;;;;14.73;3.33;;;;;;;;;;5028364;28;20743;-78
2022/10/18 08:20:32;;;;;;;18.42;3.28;;;;;;;;;;5028419;28;20049;-78
2022/10/18 08:22:58;;;;;;;11.80;3.38;;;;;;;;;;5025364;28;20049;-77
2022/10/18 08:25:24;;;;;;;11.77;3.50;;;;;;;;;;5030230;28;20453;-78
2022/10/18 08:27:50;;;;;;;10.68;3.58;;;;;;;;;;5021632;28;20489;-77
2022/10/18 08:30:16;;;;;;;13.77;3.47;;;;;;;;;;5030673;28;20884;-76
2022/10/18 08:32:42;;;;;;;10.52;3.30;;;;;;;;;;5031275;28;20048;-76
2022/10/18 08:35:08;;;;;;;12.30;3.30;;;;;;;;;;5026812;28;20033;-76
2022/10/18 08:37:37;;;;;;;11.30;3.10;;;;;;;;;;5028539;28;20501;-78
2022/10/18 08:40:03;;;;;;;12.68;3.00;;;;;;;;;;5030554;28;20103;-78
2022/10/18 08:42:43;;;;;;;11.88;3.75;;;;;;;;;;5032705;28;20045;-77
2022/10/18 08:45:11;;;;;;;14.32;3.20;;;;;;;;;;5030524;28;20558;-78
2022/10/18 08:47:39;;;;;;;13.25;3.20;;;;;;;;;;5024172;28;20138;-78
2022/10/18 08:50:07;;;;;;;13.02;3.15;;;;;;;;;;5011908;28;20049;-78
2022/10/18 08:52:51;;;;;;;10.45;3.20;;;;;;;;;;5011680;28;20045;-77
2022/10/18 08:55:23;;;;;;;10.95;3.00;;;;;;;;;;5016279;28;20050;-78
2022/10/18 08:57:50;;;;;;;11.57;3.00;;;;;;;;;;5011285;28;20529;-77
2022/10/18 09:00:20;;;;;;;11.18;3.53;;;;;;;;;;5010786;28;20137;-78
2022/10/18 09:02:55;;;;;;;10.07;2.83;;;;;;;;;;5012493;28;20429;-78
2022/10/18 09:05:29;;;;;;;13.15;3.78;;;;;;;;;;5010442;28;20103;-77
2022/10/18 09:08:08;;;;;;;12.80;3.10;;;;;;;;;;5021726;28;20398;-77
2022/10/18 09:10:53;;;;;;;11.70;2.88;;;;;;;;;;5021121;28;20482;-78
2022/10/18 09:13:22;;;;;;;13.43;2.80;;;;;;;;;;5012945;28;20490;-78
2022/10/18 09:15:51;;;;;;;10.10;2.97;;;;;;;;;;5028920;28;20081;-78
2022/10/18 09:18:23;;;;;;;11.43;3.13;;;;;;;;;;5028279;28;20049;-78
2022/10/18 09:20:52;;;;;;;8.98;2.80;;;;;;;;;;5011602;28;20489;-78
2022/10/18 09:23:19;;;;;;;9.65;3.05;;;;;;;;;;5028233;28;20524;-78
2022/10/18 09:25:53;;;;;;;10.85;3.30;;;;;;;;;;5029807;28;20041;-78
2022/10/18 09:28:26;;;;;;;10.05;3.28;;;;;;;;;;5016376;28;20057;-78
2022/10/18 09:30:58;;;;;;;14.50;2.97;;;;;;;;;;5010651;28;20567;-78
2022/10/18 09:33:34;;;;;;;7.47;2.90;;;;;;;;;;5009948;28;20048;-78
2022/10/18 09:36:05;;;;;;;11.20;2.85;;;;;;;;;;5014743;28;20046;-78
2022/10/18 09:38:32;;;;;;;11.40;3.30;;;;;;;;;;5031319;28;20045;-78
2022/10/18 09:41:04;;;;;;;11.68;3.10;;;;;;;;;;5028902;28;20042;-78
2022/10/18 09:43:48;;;;;;;14.18;3.50;;;;;;;;;;5032007;28;20085;-78
2022/10/18 09:46:16;;;;;;;7.95;2.45;;;;;;;;;;5010965;28;20042;-78
2022/10/18 09:48:46;;;;;;;9.15;2.67;;;;;;;;;;5018897;28;21374;-81
2022/10/18 09:51:16;;;;;;;9.57;2.90;;;;;;;;;;5028382;28;20042;-82
2022/10/18 09:53:51;;;;;;;10.35;2.80;;;;;;;;;;5030666;28;20054;-81
2022/10/18 09:56:21;;;;;;;12.23;3.13;;;;;;;;;;5024735;28;20049;-80
2022/10/18 09:58:48;;;;;;;11.88;3.22;;;;;;;;;;5029457;28;20136;-79
2022/10/18 10:01:15;;;;;;;10.15;3.17;;;;;;;;;;5026415;28;20049;-81
2022/10/18 10:03:42;;;;;;;11.60;2.60;;;;;;;;;;5025544;28;20045;-81
2022/10/18 10:06:11;;;;;;;10.02;2.35;;;;;;;;;;5021277;28;20131;-79
2022/10/18 10:08:40;;;;;;;10.30;2.80;;;;;;;;;;5025267;28;20072;-77
2022/10/18 10:11:25;;;;;;;11.73;3.13;;;;;;;;;;5028096;28;20076;-77
2022/10/18 10:13:51;;;;;;;7.97;2.60;;;;;;;;;;5020711;28;20045;-80
2022/10/18 10:16:17;;;;;;;11.82;2.70;;;;;;;;;;5021399;28;20049;-81
2022/10/18 10:18:43;;;;;;;9.95;2.90;;;;;;;;;;5029378;28;20069;-81
2022/10/18 10:21:14;;;;;;;8.25;2.40;;;;;;;;;;5013065;28;20053;-82
2022/10/18 10:23:49;;;;;;;8.88;2.67;;;;;;;;;;5024980;28;20490;-79
2022/10/18 10:26:30;;;;;;;10.70;2.75;;;;;;;;;;5021766;28;20072;-77
2022/10/18 10:28:56;;;;;;;9.57;2.80;;;;;;;;;;5026953;28;20096;-77
2022/10/18 10:31:29;;;;;;;10.80;2.80;;;;;;;;;;5026479;28;20037;-77
2022/10/18 10:33:58;;;;;;;14.63;3.03;;;;;;;;;;5028795;28;20095;-77
2022/10/18 10:36:24;;;;;;;11.65;3.60;;;;;;;;;;5016181;28;20100;-77
2022/10/18 10:39:02;;;;;;;11.95;3.00;;;;;;;;;;5020548;28;20045;-77
2022/10/18 10:41:29;;;;;;;8.25;2.60;;;;;;;;;;5025196;28;20045;-77
2022/10/18 10:43:55;;;;;;;12.60;2.88;;;;;;;;;;5023757;28;20045;-77
2022/10/18 10:46:22;;;;;;;15.75;2.97;;;;;;;;;;5020285;28;20046;-77
2022/10/18 10:48:58;;;;;;;12.13;2.92;;;;;;;;;;5021661;28;20136;-76
2022/10/18 10:51:36;;;;;;;8.23;3.00;;;;;;;;;;5022445;28;20053;-76
2022/10/18 10:54:02;;;;;;;13.98;3.28;;;;;;;;;;5015969;28;20049;-76
2022/10/18 10:56:30;;;;;;;11.10;2.88;;;;;;;;;;5020479;28;20056;-76
2022/10/18 10:58:58;;;;;;;9.23;2.95;;;;;;;;;;5022249;28;20149;-76
2022/10/18 11:01:25;;;;;;;8.25;2.80;;;;;;;;;;5012262;28;20054;-77
2022/10/18 11:03:53;;;;;;;9.98;2.60;;;;;;;;;;5010751;28;20045;-76
2022/10/18 11:06:31;;;;;;;11.85;2.72;;;;;;;;;;5008971;28;20409;-76
2022/10/18 11:08:58;;;;;;;13.55;2.83;;;;;;;;;;5013447;28;20124;-76
2022/10/18 11:11:30;;;;;;;11.10;3.33;;;;;;;;;;5026871;28;20120;-76
2022/10/18 11:13:59;;;;;;;11.00;2.90;;;;;;;;;;5017790;28;20528;-76
2022/10/18 11:16:47;;;;;;;8.02;2.88;;;;;;;;;;5014730;28;20042;-76
2022/10/18 11:19:32;;;;;;;8.98;2.65;;;;;;;;;;5017124;28;20056;-76
2022/10/18 11:21:59;;;;;;;7.22;2.38;;;;;;;;;;5031642;28;20412;-76
2022/10/18 11:24:25;;;;;;;11.98;3.13;;;;;;;;;;5027217;28;20393;-76
2022/10/18 11:27:09;;;;;;;7.47;2.60;;;;;;;;;;5029711;28;20398;-76
2022/10/18 11:29:54;;;;;;;8.85;2.83;;;;;;;;;;5023006;28;20405;-77
2022/10/18 11:32:29;;;;;;;7.95;2.63;;;;;;;;;;5025040;28;20134;-76
2022/10/18 11:34:58;;;;;;;8.48;2.92;;;;;;;;;;5029350;28;20052;-76
2022/10/18 11:37:43;;;;;;;8.68;2.80;;;;;;;;;;5014341;28;20045;-76
2022/10/18 11:40:35;;;;;;;8.50;2.38;;;;;;;;;;5025168;28;20054;-77
2022/10/18 11:43:22;;;;;;;8.50;2.92;;;;;;;;;;5017902;28;20085;-76
2022/10/18 11:46:02;;;;;;;10.68;2.53;;;;;;;;;;5013568;28;20045;-77
2022/10/18 11:48:28;;;;;;;9.27;2.65;;;;;;;;;;5012213;28;20046;-76
2022/10/18 11:51:05;;;;;;;12.85;2.80;;;;;;;;;;5013015;28;20042;-77
2022/10/18 11:53:34;;;;;;;9.52;2.83;;;;;;;;;;5018259;28;20048;-76
2022/10/18 11:56:09;;;;;;;8.88;2.90;;;;;;;;;;5031456;28;20049;-77
2022/10/18 11:59:04;;;;;;;9.05;2.42;;;;;;;;;;5029269;28;20058;-77
2022/10/18 12:01:30;;;;;;;10.35;2.25;;;;;;;;;;4976474;28;20051;-77
2022/10/18 12:04:12;;;;;;;10.40;2.72;;;;;;;;;;5025353;28;20099;-77
2022/10/18 12:06:40;;;;;;;7.10;2.15;;;;;;;;;;5032191;28;20050;-76
2022/10/18 12:09:24;;;;;;;7.00;2.42;;;;;;;;;;5027990;28;20046;-76
2022/10/18 12:11:52;;;;;;;8.18;2.40;;;;;;;;;;5033838;28;20092;-77
2022/10/18 12:14:27;;;;;;;7.03;2.65;;;;;;;;;;5026941;28;20085;-76
2022/10/18 12:16:57;;;;;;;8.88;3.13;;;;;;;;;;5022806;28;20050;-76
2022/10/18 12:19:25;;;;;;;7.10;2.60;;;;;;;;;;5012029;28;20123;-77
2022/10/18 12:21:51;;;;;;;8.20;2.80;;;;;;;;;;5025704;28;20080;-76
2022/10/18 12:24:20;;;;;;;6.18;2.40;;;;;;;;;;5016298;28;20100;-77
2022/10/18 12:26:47;;;;;;;11.95;2.60;;;;;;;;;;5012552;28;20054;-77
2022/10/18 12:29:16;;;;;;;9.00;2.67;;;;;;;;;;5012260;28;20081;-76
2022/10/18 12:31:42;;;;;;;9.18;2.67;;;;;;;;;;5025193;28;20068;-76
2022/10/18 12:34:22;;;;;;;8.10;2.40;;;;;;;;;;5031658;28;20057;-76
2022/10/18 12:36:55;;;;;;;6.60;2.20;;;;;;;;;;5015310;28;20046;-76
2022/10/18 12:39:25;;;;;;;4.82;2.10;;;;;;;;;;5027384;28;20077;-77
2022/10/18 12:41:53;;;;;;;8.32;2.67;;;;;;;;;;5022813;28;20041;-77
2022/10/18 12:44:21;;;;;;;8.63;2.53;;;;;;;;;;5013897;28;20038;-77
2022/10/18 12:46:52;;;;;;;8.85;2.70;;;;;;;;;;5031545;28;20383;-77
2022/10/18 12:49:29;;;;;;;12.60;2.90;;;;;;;;;;5015874;28;20057;-77
2022/10/18 12:51:59;;;;;;;7.00;2.60;;;;;;;;;;5014800;28;20050;-77
2022/10/18 12:54:36;;;;;;;6.82;2.72;;;;;;;;;;5032481;28;20046;-77
2022/10/18 12:57:03;;;;;;;11.18;2.65;;;;;;;;;;5031552;28;20116;-77
2022/10/18 12:59:29;;;;;;;9.20;2.97;;;;;;;;;;5013504;28;20131;-76
2022/10/18 13:01:55;;;;;;;8.15;2.33;;;;;;;;;;5014506;28;20606;-77
2022/10/18 13:04:27;;;;;;;6.78;2.40;;;;;;;;;;5031651;28;20451;-77
2022/10/18 13:07:02;;;;;;;8.35;2.80;;;;;;;;;;5030531;28;20053;-77
2022/10/18 13:09:29;;;;;;;4.72;2.30;;;;;;;;;;5030524;28;20334;-77
2022/10/18 13:12:18;;;;;;;7.07;2.50;;;;;;;;;;5024718;28;20128;-77
2022/10/18 13:14:44;;;;;;;8.45;2.67;;;;;;;;;;4982914;28;20046;-77
2022/10/18 13:17:31;;;;;;;5.68;2.30;;;;;;;;;;5014060;28;20038;-78
2022/10/18 13:20:00;;;;;;;7.07;2.65;;;;;;;;;;5031320;28;20547;-78
2022/10/18 13:22:32;;;;;;;5.32;2.50;;;;;;;;;;5016599;28;20553;-77
2022/10/18 13:25:12;;;;;;;9.43;2.47;;;;;;;;;;5031228;28;20053;-77
2022/10/18 13:27:57;;;;;;;4.35;2.20;;;;;;;;;;5030727;28;20049;-78
2022/10/18 13:30:28;;;;;;;5.65;2.20;;;;;;;;;;5010612;28;20061;-78
2022/10/18 13:33:13;;;;;;;5.93;2.40;;;;;;;;;;5010484;28;20048;-77
2022/10/18 13:35:42;;;;;;;7.07;2.22;;;;;;;;;;5011405;28;20049;-77
2022/10/18 13:38:27;;;;;;;6.68;2.60;;;;;;;;;;5023555;28;20045;-77
2022/10/18 13:41:00;;;;;;;3.90;1.90;;;;;;;;;;5030346;28;20111;-77
2022/10/18 13:43:44;;;;;;;6.65;2.58;;;;;;;;;;5030137;28;20128;-78
2022/10/18 13:46:10;;;;;;;4.72;2.30;;;;;;;;;;5016002;28;20046;-78
2022/10/18 13:48:36;;;;;;;4.38;2.10;;;;;;;;;;5011535;28;20137;-78
2022/10/18 13:51:18;;;;;;;8.40;2.30;;;;;;;;;;5009807;28;20113;-77
2022/10/18 13:53:53;;;;;;;7.18;2.20;;;;;;;;;;5018613;28;20048;-77
2022/10/18 13:56:25;;;;;;;3.00;1.88;;;;;;;;;;5032714;28;20041;-78
2022/10/18 13:58:55;;;;;;;4.85;2.00;;;;;;;;;;5024224;28;20065;-78
2022/10/18 14:01:38;;;;;;;6.68;2.40;;;;;;;;;;5011299;28;20124;-78
2022/10/18 14:04:23;;;;;;;6.35;2.22;;;;;;;;;;5010419;28;20050;-78
2022/10/18 14:06:50;;;;;;;5.95;2.03;;;;;;;;;;5021821;28;20048;-78
2022/10/18 14:09:24;;;;;;;6.13;2.10;;;;;;;;;;5029858;28;20060;-78
2022/10/18 14:11:52;;;;;;;8.63;2.30;;;;;;;;;;5011910;28;20042;-79
2022/10/18 14:14:28;;;;;;;4.47;2.22;;;;;;;;;;5011854;28;20120;-77
2022/10/18 14:16:57;;;;;;;4.43;1.92;;;;;;;;;;5017804;28;20132;-77
2022/10/18 14:19:42;;;;;;;5.93;2.20;;;;;;;;;;5014694;28;20129;-77
2022/10/18 14:22:11;;;;;;;7.72;2.00;;;;;;;;;;5010513;28;20046;-77
2022/10/18 14:24:38;;;;;;;4.65;2.10;;;;;;;;;;5010684;28;20058;-77
2022/10/18 14:27:24;;;;;;;5.70;2.00;;;;;;;;;;5026061;28;20397;-77
2022/10/18 14:30:06;;;;;;;8.00;2.45;;;;;;;;;;5029704;28;20099;-77
2022/10/18 14:32:32;;;;;;;6.00;2.08;;;;;;;;;;5016551;28;20042;-78
2022/10/18 14:34:58;;;;;;;7.00;2.17;;;;;;;;;;5010731;28;20490;-78
2022/10/18 14:37:43;;;;;;;8.05;2.47;;;;;;;;;;5011287;28;20057;-78
2022/10/18 14:40:25;;;;;;;6.85;2.13;;;;;;;;;;5020004;28;20050;-78
2022/10/18 14:42:51;;;;;;;7.80;2.38;;;;;;;;;;5029676;28;20512;-78
2022/10/18 14:45:18;;;;;;;6.80;2.40;;;;;;;;;;5029900;28;20050;-78
2022/10/18 14:47:44;;;;;;;4.28;2.10;;;;;;;;;;5018809;28;20049;-78